Blenheim, New Jersey
Current Conditions -  °F | °C
As of 11:54 AM on Saturday 20 Dec 2014 (Local Time) from KPHL Reporting Station
Overcast Overcast  
Wind Chill: 27°   Ceiling: 3100
Heat Index: 34°   Visibility: 10mi
Dew Point: 20°   Wind: 8mph
Humidity: 56%   Direction: 30°NNE
Pressure: 30.29"   Gusts: NA
Location:  39.778°N, 75.0552°W
Report Text: KPHL 201654Z 03007KT 10SM OVC031 01/M07 A3029 RMK AO2 SLP256 T00111067
Loading
Personal Weather Stations






























Interactive Weather Map New forecast layout! Learn more

10-Day Weather Forecast

Advertisements
Track Severe Weather on mobile